Time;durP1;ratioP1;P1;durP2;ratioP2;P2;SDS_P1;SDS_P2;PMS_P1;PMS_P2;Temp;Humidity;BMP_temperature;BMP_pressure;BME280_temperature;BME280_humidity;BME280_pressure;Samples;Min_cycle;Max_cycle;Signal;HPM_P1;HPM_P2
2022/07/08 00:01:48;;;;;;;19.13;3.55;;;18.50;99.90;;;;;;4122815;28;20209;-87
2022/07/08 00:03:51;;;;;;;20.48;2.63;;;18.60;99.90;;;;;;4120995;28;20280;-77
2022/07/08 00:05:53;;;;;;;14.07;2.75;;;18.60;99.90;;;;;;4124696;28;20213;-77
2022/07/08 00:07:57;;;;;;;15.85;2.75;;;18.60;99.90;;;;;;4121833;28;20273;-78
2022/07/08 00:10:00;;;;;;;14.30;2.60;;;18.50;99.90;;;;;;4122146;28;20991;-80
2022/07/08 00:12:02;;;;;;;10.20;2.35;;;18.50;99.90;;;;;;4124734;28;20703;-82
2022/07/08 00:14:05;;;;;;;13.10;2.38;;;18.40;99.90;;;;;;4123366;28;20276;-78
2022/07/08 00:16:09;;;;;;;47.63;5.25;;;18.10;99.90;;;;;;4125337;28;20226;-80
2022/07/08 00:18:11;;;;;;;86.05;8.07;;;17.70;99.90;;;;;;4122896;28;20210;-81
2022/07/08 00:20:13;;;;;;;56.85;6.13;;;17.90;99.90;;;;;;4125719;28;20264;-77
2022/07/08 00:22:16;;;;;;;55.17;5.97;;;18.20;99.90;;;;;;4127353;28;20280;-80
2022/07/08 00:24:19;;;;;;;48.17;4.50;;;18.40;99.90;;;;;;4123926;28;20252;-81
2022/07/08 00:26:22;;;;;;;36.65;4.47;;;18.60;99.90;;;;;;4124623;28;20222;-81
2022/07/08 00:28:24;;;;;;;86.75;7.75;;;18.70;99.90;;;;;;4124886;28;20268;-81
2022/07/08 00:30:26;;;;;;;49.38;5.78;;;18.80;99.90;;;;;;4121286;28;20223;-81
2022/07/08 00:32:29;;;;;;;52.95;4.97;;;19.00;99.90;;;;;;4127250;28;20222;-79
2022/07/08 00:34:31;;;;;;;45.70;4.35;;;19.10;99.90;;;;;;4124281;28;20238;-81
2022/07/08 00:36:35;;;;;;;28.73;3.65;;;19.20;99.90;;;;;;4135593;28;20217;-80
2022/07/08 00:38:37;;;;;;;31.15;3.55;;;19.30;99.90;;;;;;4124033;28;20217;-81
2022/07/08 00:40:41;;;;;;;21.27;3.17;;;19.40;99.90;;;;;;4131298;28;20225;-80
2022/07/08 00:42:48;;;;;;;25.95;3.85;;;19.40;99.90;;;;;;4133459;28;20264;-80
2022/07/08 00:44:50;;;;;;;22.17;3.90;;;19.50;99.90;;;;;;4127319;28;20242;-81
2022/07/08 00:46:52;;;;;;;22.98;3.55;;;19.60;99.90;;;;;;4137241;28;20286;-80
2022/07/08 00:48:55;;;;;;;26.10;3.97;;;19.60;99.90;;;;;;4131430;28;20218;-81
2022/07/08 00:51:00;;;;;;;22.98;4.30;;;19.70;99.90;;;;;;4133239;28;20222;-80
2022/07/08 00:53:02;;;;;;;30.05;3.60;;;19.70;99.90;;;;;;4133436;28;20222;-80
2022/07/08 00:55:06;;;;;;;25.00;3.13;;;19.80;99.90;;;;;;4137253;28;20224;-79
2022/07/08 00:57:10;;;;;;;26.15;3.28;;;19.80;99.90;;;;;;4138393;28;20965;-79
2022/07/08 00:59:12;;;;;;;16.73;3.30;;;19.90;99.90;;;;;;4133194;28;20217;-80
2022/07/08 01:01:15;;;;;;;20.67;3.17;;;19.90;99.90;;;;;;4126275;28;20218;-79
2022/07/08 01:03:17;;;;;;;20.80;3.22;;;19.90;99.90;;;;;;4132072;28;20213;-80
2022/07/08 01:05:20;;;;;;;23.67;3.20;;;20.00;99.90;;;;;;4134267;28;20280;-80
2022/07/08 01:07:23;;;;;;;25.88;3.88;;;20.00;99.90;;;;;;4140831;28;20232;-80
2022/07/08 01:09:25;;;;;;;15.18;3.13;;;20.10;99.90;;;;;;4134462;28;20728;-80
2022/07/08 01:11:28;;;;;;;15.48;3.50;;;20.10;99.90;;;;;;4127268;28;20272;-80
2022/07/08 01:13:32;;;;;;;15.52;3.28;;;20.10;99.90;;;;;;4136462;28;20245;-80
2022/07/08 01:15:35;;;;;;;15.35;2.85;;;20.10;99.90;;;;;;4140597;28;20615;-80
2022/07/08 01:17:43;;;;;;;14.98;2.92;;;20.10;99.90;;;;;;4144315;28;20228;-80
2022/07/08 01:19:46;;;;;;;11.68;3.03;;;20.10;99.90;;;;;;4151347;28;20267;-80
2022/07/08 01:21:50;;;;;;;14.80;3.40;;;20.20;99.90;;;;;;4154830;28;20221;-80
2022/07/08 01:23:53;;;;;;;14.85;3.03;;;20.20;99.90;;;;;;4147595;28;20263;-80
2022/07/08 01:25:56;;;;;;;16.13;3.17;;;20.20;99.90;;;;;;4150439;28;20209;-80
2022/07/08 01:27:58;;;;;;;15.35;2.58;;;20.20;99.90;;;;;;4151810;28;20217;-80
2022/07/08 01:30:01;;;;;;;13.00;3.10;;;20.20;99.90;;;;;;4149470;28;20618;-79
2022/07/08 01:32:04;;;;;;;9.95;2.63;;;20.30;99.90;;;;;;4155643;28;20363;-80
2022/07/08 01:34:06;;;;;;;11.68;2.67;;;20.30;99.90;;;;;;4155757;28;20262;-79
2022/07/08 01:36:09;;;;;;;11.07;2.58;;;20.30;99.90;;;;;;4150815;28;20233;-79
2022/07/08 01:38:12;;;;;;;12.57;2.80;;;20.30;99.90;;;;;;4151928;28;20221;-79
2022/07/08 01:40:15;;;;;;;13.52;2.72;;;20.30;99.90;;;;;;4149391;28;20267;-80
2022/07/08 01:42:17;;;;;;;19.52;2.97;;;20.40;99.90;;;;;;4148629;28;20232;-80
2022/07/08 01:44:19;;;;;;;15.02;2.72;;;20.40;99.90;;;;;;4148499;28;20272;-80
2022/07/08 01:46:22;;;;;;;12.60;2.78;;;20.40;99.90;;;;;;4148970;28;20225;-80
2022/07/08 01:48:25;;;;;;;15.77;2.65;;;20.40;99.90;;;;;;4148608;28;20221;-80
2022/07/08 01:50:27;;;;;;;11.75;2.60;;;20.40;99.90;;;;;;4145372;28;20271;-80
2022/07/08 01:52:29;;;;;;;15.82;2.97;;;20.40;99.90;;;;;;4142311;28;20221;-80
2022/07/08 01:54:33;;;;;;;14.07;3.03;;;20.40;99.90;;;;;;4138847;28;20724;-80
2022/07/08 01:56:35;;;;;;;12.13;2.78;;;20.40;99.90;;;;;;4134861;28;20276;-80
2022/07/08 01:58:38;;;;;;;13.25;2.70;;;20.40;99.90;;;;;;4150742;28;20216;-80
2022/07/08 02:00:40;;;;;;;11.07;2.65;;;20.40;99.90;;;;;;4155158;28;20216;-80
2022/07/08 02:02:43;;;;;;;9.38;2.80;;;20.40;99.90;;;;;;4149394;28;20221;-79
2022/07/08 02:04:46;;;;;;;10.80;2.78;;;20.40;99.90;;;;;;4148482;28;20287;-80
2022/07/08 02:06:48;;;;;;;11.60;3.00;;;20.40;99.90;;;;;;4145615;28;20224;-80
2022/07/08 02:08:50;;;;;;;15.05;2.75;;;20.40;99.90;;;;;;4147910;28;20221;-81
2022/07/08 02:13:13;;;;;;;12.43;2.78;;;20.50;99.90;;;;;;4148221;28;20227;-80
2022/07/08 02:15:16;;;;;;;16.92;3.25;;;20.50;99.90;;;;;;4145919;28;20276;-80
2022/07/08 02:17:19;;;;;;;13.95;3.17;;;20.50;99.90;;;;;;4142760;28;20295;-80
2022/07/08 02:19:21;;;;;;;8.25;2.20;;;20.50;99.90;;;;;;4149535;28;20205;-80
2022/07/08 02:21:24;;;;;;;12.35;2.80;;;20.50;99.90;;;;;;4156299;28;20209;-80
2022/07/08 02:23:26;;;;;;;11.80;2.45;;;20.50;99.90;;;;;;4152276;28;20221;-80
2022/07/08 02:25:28;;;;;;;12.77;2.90;;;20.50;99.90;;;;;;4146726;28;20287;-80
2022/07/08 02:27:32;;;;;;;10.55;2.63;;;20.50;99.90;;;;;;4144021;28;20217;-80
2022/07/08 02:29:34;;;;;;;11.15;2.47;;;20.50;99.90;;;;;;4147892;28;20292;-80
2022/07/08 02:31:37;;;;;;;10.68;2.70;;;20.50;99.90;;;;;;4146972;28;20268;-80
2022/07/08 02:33:39;;;;;;;11.68;2.70;;;20.50;99.90;;;;;;4153124;28;20221;-80
2022/07/08 02:35:41;;;;;;;9.60;2.38;;;20.50;99.90;;;;;;4148415;28;20715;-80
2022/07/08 02:37:44;;;;;;;8.20;2.50;;;20.50;99.90;;;;;;4144838;28;20217;-80
2022/07/08 02:39:46;;;;;;;13.80;2.67;;;20.60;99.90;;;;;;4148510;28;20214;-80
2022/07/08 02:41:49;;;;;;;8.40;2.30;;;20.60;99.90;;;;;;4147618;28;20614;-80
2022/07/08 02:43:53;;;;;;;9.40;2.47;;;20.50;99.90;;;;;;4147838;28;20221;-80
2022/07/08 02:45:55;;;;;;;10.93;2.67;;;20.60;99.90;;;;;;4147708;28;20642;-80
2022/07/08 02:47:57;;;;;;;7.85;2.40;;;20.60;99.90;;;;;;4148197;28;20221;-80
2022/07/08 02:50:00;;;;;;;5.90;2.42;;;20.60;99.90;;;;;;4147636;28;20221;-80
2022/07/08 02:52:02;;;;;;;9.82;2.30;;;20.60;99.90;;;;;;4147104;28;20217;-80
2022/07/08 02:54:05;;;;;;;10.52;2.72;;;20.50;99.90;;;;;;4148030;28;20267;-80
2022/07/08 02:56:08;;;;;;;9.82;2.65;;;20.60;99.90;;;;;;4147970;28;21036;-80
2022/07/08 02:58:10;;;;;;;11.90;2.45;;;20.60;99.90;;;;;;4147263;28;20225;-80
2022/07/08 03:00:14;;;;;;;8.25;2.50;;;20.60;99.90;;;;;;4147489;28;20977;-80
2022/07/08 03:02:16;;;;;;;10.88;2.30;;;20.60;99.90;;;;;;4144873;28;20247;-80
2022/07/08 03:04:19;;;;;;;10.20;2.30;;;20.60;99.90;;;;;;4147606;28;20267;-81
2022/07/08 03:06:21;;;;;;;10.40;2.40;;;20.60;99.90;;;;;;4148311;28;20233;-81
2022/07/08 03:08:23;;;;;;;9.35;2.60;;;20.60;99.90;;;;;;4147673;28;20213;-81
2022/07/08 03:10:26;;;;;;;6.75;2.28;;;20.60;99.90;;;;;;4147660;28;20616;-81
2022/07/08 03:12:28;;;;;;;11.18;2.65;;;20.60;99.90;;;;;;4147979;28;20217;-81
2022/07/08 03:14:30;;;;;;;10.07;2.63;;;20.60;99.90;;;;;;4147985;28;20221;-81
2022/07/08 03:16:35;;;;;;;8.68;2.40;;;20.60;99.90;;;;;;4147316;28;20287;-80
2022/07/08 03:18:37;;;;;;;6.97;2.47;;;20.60;99.90;;;;;;4147674;28;20209;-81
2022/07/08 03:20:40;;;;;;;10.00;2.42;;;20.60;99.90;;;;;;4147012;28;20225;-81
2022/07/08 03:22:42;;;;;;;8.00;2.13;;;20.60;99.90;;;;;;4147727;28;20225;-80
2022/07/08 03:24:44;;;;;;;8.45;2.45;;;20.60;99.90;;;;;;4146801;28;20222;-80
2022/07/08 03:26:46;;;;;;;7.75;2.40;;;20.60;99.90;;;;;;4146830;28;20241;-80
2022/07/08 03:28:49;;;;;;;11.77;2.55;;;20.60;99.90;;;;;;4143467;28;20605;-80
2022/07/08 03:30:51;;;;;;;7.15;2.55;;;20.60;99.90;;;;;;4136840;28;20710;-80
2022/07/08 03:32:55;;;;;;;10.95;2.38;;;20.60;99.90;;;;;;4153342;28;20216;-80
2022/07/08 03:34:58;;;;;;;6.18;2.17;;;20.60;99.90;;;;;;4144152;28;20221;-80
2022/07/08 03:37:00;;;;;;;10.45;2.45;;;20.60;99.90;;;;;;4146109;28;20685;-79
2022/07/08 03:39:02;;;;;;;9.63;2.53;;;20.60;99.90;;;;;;4145512;28;20263;-80
2022/07/08 03:41:23;;;;;;;9.27;2.80;;;20.60;99.90;;;;;;4144336;28;20217;-80
2022/07/08 03:43:25;;;;;;;10.65;2.85;;;20.70;99.90;;;;;;4151945;28;20205;-80
2022/07/08 03:45:28;;;;;;;10.07;2.55;;;20.60;99.90;;;;;;4157114;28;20291;-80
2022/07/08 03:47:30;;;;;;;11.02;2.15;;;20.70;99.90;;;;;;4150317;28;20311;-80
2022/07/08 03:49:34;;;;;;;7.63;2.15;;;20.70;99.90;;;;;;4145950;28;20221;-80
2022/07/08 03:51:36;;;;;;;12.10;2.65;;;20.60;99.90;;;;;;4144793;28;20661;-80
2022/07/08 03:53:38;;;;;;;8.05;2.33;;;20.70;99.90;;;;;;4140745;28;20260;-80
2022/07/08 03:55:41;;;;;;;9.00;2.50;;;20.70;99.90;;;;;;4146746;28;20271;-80
2022/07/08 03:57:43;;;;;;;6.72;2.20;;;20.60;99.90;;;;;;4150409;28;20541;-80
2022/07/08 03:59:45;;;;;;;9.63;2.60;;;20.60;99.90;;;;;;4148951;28;20213;-81
2022/07/08 04:01:47;;;;;;;6.70;1.75;;;20.70;99.90;;;;;;4145475;28;20335;-80
2022/07/08 04:03:50;;;;;;;11.60;2.17;;;20.70;99.90;;;;;;4153054;28;20213;-80
2022/07/08 04:05:53;;;;;;;7.70;2.20;;;20.70;99.90;;;;;;4150716;28;20291;-80
2022/07/08 04:07:56;;;;;;;5.97;2.30;;;20.70;99.90;;;;;;4140680;28;20213;-80
2022/07/08 04:09:58;;;;;;;6.25;2.03;;;20.60;99.90;;;;;;4144570;28;20217;-80
2022/07/08 04:12:00;;;;;;;9.43;2.45;;;20.70;99.90;;;;;;4146673;28;20573;-81
2022/07/08 04:14:02;;;;;;;7.20;2.13;;;20.70;99.90;;;;;;4148829;28;20213;-80
2022/07/08 04:16:08;;;;;;;6.68;2.22;;;20.70;99.90;;;;;;4140778;28;20221;-80
2022/07/08 04:18:10;;;;;;;8.45;2.13;;;20.70;99.90;;;;;;4141922;28;20225;-80
2022/07/08 04:20:12;;;;;;;7.63;2.00;;;20.70;99.90;;;;;;4147258;28;20267;-80
2022/07/08 04:22:16;;;;;;;6.63;2.15;;;20.70;99.90;;;;;;4146594;28;20225;-80
2022/07/08 04:24:18;;;;;;;5.68;2.05;;;20.70;99.90;;;;;;4145853;28;20649;-80
2022/07/08 04:26:21;;;;;;;6.57;2.30;;;20.70;99.90;;;;;;4144077;28;20300;-81
2022/07/08 04:28:23;;;;;;;7.70;2.20;;;20.70;99.90;;;;;;4157213;28;20212;-80
2022/07/08 04:30:28;;;;;;;7.90;2.20;;;20.70;99.90;;;;;;4144744;28;20213;-81
2022/07/08 04:32:30;;;;;;;6.10;1.80;;;20.70;99.90;;;;;;4147067;28;20716;-80
2022/07/08 04:34:32;;;;;;;8.00;2.20;;;20.70;99.90;;;;;;4154295;28;20686;-80
2022/07/08 04:36:35;;;;;;;5.93;2.03;;;20.70;99.90;;;;;;4144471;28;20229;-81
2022/07/08 04:38:39;;;;;;;5.65;2.00;;;20.70;99.90;;;;;;4145481;28;20895;-80
2022/07/08 04:40:41;;;;;;;6.03;1.67;;;20.70;99.90;;;;;;4151704;28;20220;-80
2022/07/08 04:42:43;;;;;;;9.00;2.10;;;20.70;99.90;;;;;;4145241;28;20267;-80
2022/07/08 04:44:46;;;;;;;5.72;2.50;;;20.70;99.90;;;;;;4146870;28;20208;-81
2022/07/08 04:46:48;;;;;;;4.53;1.90;;;20.70;99.90;;;;;;4143756;28;20241;-80
2022/07/08 04:48:50;;;;;;;5.50;2.05;;;20.70;99.90;;;;;;4146287;28;20221;-80
2022/07/08 04:50:52;;;;;;;6.60;2.03;;;20.70;99.90;;;;;;4146605;28;20622;-80
2022/07/08 04:52:55;;;;;;;10.93;2.65;;;20.70;99.90;;;;;;4145660;28;20225;-81
2022/07/08 04:54:59;;;;;;;5.25;2.03;;;20.70;99.90;;;;;;4148567;28;20224;-81
2022/07/08 04:57:01;;;;;;;5.72;2.10;;;20.70;99.90;;;;;;4149595;28;20228;-80
2022/07/08 04:59:04;;;;;;;7.18;1.98;;;20.70;99.90;;;;;;4149102;28;20224;-79
2022/07/08 05:01:06;;;;;;;8.07;2.05;;;20.70;99.90;;;;;;4149591;28;20308;-80
2022/07/08 05:03:08;;;;;;;5.88;2.10;;;20.70;99.90;;;;;;4150011;28;20209;-80
2022/07/08 05:05:11;;;;;;;7.28;2.17;;;20.80;99.90;;;;;;4149938;28;20224;-80
2022/07/08 05:07:13;;;;;;;5.20;2.35;;;20.70;99.90;;;;;;4149418;28;20221;-80
2022/07/08 05:09:16;;;;;;;4.63;1.90;;;20.70;99.90;;;;;;4149425;28;20213;-80
2022/07/08 05:11:19;;;;;;;7.35;2.22;;;20.80;99.90;;;;;;4149609;28;20267;-80
2022/07/08 05:13:22;;;;;;;5.55;2.03;;;20.80;99.90;;;;;;4148627;28;20220;-80
2022/07/08 05:15:25;;;;;;;3.05;1.88;;;20.80;99.90;;;;;;4149955;28;20605;-80
2022/07/08 05:17:27;;;;;;;6.35;2.03;;;20.80;99.90;;;;;;4149556;28;20274;-80
2022/07/08 05:19:29;;;;;;;7.50;1.95;;;20.70;99.90;;;;;;4149126;28;20263;-80
2022/07/08 05:21:32;;;;;;;7.18;2.22;;;20.80;99.90;;;;;;4149323;28;20645;-80
2022/07/08 05:23:34;;;;;;;4.93;2.03;;;20.80;99.90;;;;;;4149471;28;20271;-80
2022/07/08 05:25:36;;;;;;;5.68;2.10;;;20.80;99.90;;;;;;4146781;28;20213;-80
2022/07/08 05:27:40;;;;;;;4.50;1.63;;;20.80;99.90;;;;;;4146051;28;20237;-79
2022/07/08 05:29:43;;;;;;;5.10;2.05;;;20.80;99.90;;;;;;4149373;28;20279;-80
2022/07/08 05:31:45;;;;;;;7.20;2.50;;;20.90;99.90;;;;;;4146127;28;20213;-80
2022/07/08 05:33:47;;;;;;;4.90;1.90;;;20.80;99.90;;;;;;4148454;28;20649;-80
2022/07/08 05:35:49;;;;;;;5.10;2.03;;;20.80;99.90;;;;;;4149431;28;20271;-81
2022/07/08 05:37:52;;;;;;;5.65;1.98;;;20.80;99.90;;;;;;4148394;28;20229;-80
2022/07/08 05:39:54;;;;;;;6.32;1.98;;;20.90;99.90;;;;;;4149180;28;20225;-80
2022/07/08 05:41:57;;;;;;;7.25;2.40;;;20.80;99.90;;;;;;4150597;28;20263;-81
2022/07/08 05:44:00;;;;;;;8.50;2.50;;;20.90;99.90;;;;;;4143541;28;20638;-80
2022/07/08 05:46:03;;;;;;;5.18;2.10;;;20.90;99.90;;;;;;4157950;28;20213;-80
2022/07/08 05:48:06;;;;;;;6.57;1.95;;;20.90;99.90;;;;;;4148062;28;20248;-80
2022/07/08 05:50:09;;;;;;;6.93;2.00;;;20.90;99.90;;;;;;4148092;28;20264;-81
2022/07/08 05:52:12;;;;;;;5.35;1.85;;;20.90;99.90;;;;;;4148922;28;20221;-80
2022/07/08 05:54:14;;;;;;;6.30;1.60;;;20.90;99.90;;;;;;4147414;28;20274;-80
2022/07/08 05:56:17;;;;;;;5.05;1.75;;;20.90;99.90;;;;;;4148333;28;20221;-80
2022/07/08 05:58:19;;;;;;;6.35;2.17;;;20.90;99.90;;;;;;4153096;28;20212;-81
2022/07/08 06:00:23;;;;;;;7.13;2.40;;;20.90;99.90;;;;;;4157017;28;20668;-81
2022/07/08 06:02:25;;;;;;;5.82;2.13;;;20.90;99.90;;;;;;4152604;28;20730;-80
2022/07/08 06:04:27;;;;;;;5.75;1.80;;;21.00;99.90;;;;;;4149250;28;20622;-80
2022/07/08 06:06:30;;;;;;;3.25;1.50;;;21.00;99.90;;;;;;4154740;28;20291;-80
2022/07/08 06:08:32;;;;;;;4.38;2.00;;;20.90;99.90;;;;;;4142851;28;20303;-78
2022/07/08 06:10:34;;;;;;;5.63;1.95;;;20.90;99.90;;;;;;4148377;28;20267;-78
2022/07/08 06:12:37;;;;;;;5.63;1.92;;;21.00;99.90;;;;;;4149455;28;20225;-78
2022/07/08 06:14:39;;;;;;;6.28;2.10;;;21.00;99.90;;;;;;4144990;28;20628;-78
2022/07/08 06:16:43;;;;;;;8.13;2.00;;;21.00;99.90;;;;;;4144431;28;20524;-78
2022/07/08 06:18:45;;;;;;;6.13;2.15;;;21.00;99.90;;;;;;4146258;28;20217;-78
2022/07/08 06:20:47;;;;;;;5.22;1.95;;;21.00;99.90;;;;;;4152886;28;20225;-78
2022/07/08 06:22:50;;;;;;;5.40;2.00;;;21.00;99.90;;;;;;4151952;28;20641;-78
2022/07/08 06:24:55;;;;;;;3.75;1.67;;;21.00;99.90;;;;;;4147099;28;20221;-78
2022/07/08 06:26:57;;;;;;;4.50;1.90;;;21.00;99.90;;;;;;4147630;28;20229;-78
2022/07/08 06:28:59;;;;;;;3.63;1.70;;;21.00;99.90;;;;;;4140304;28;20267;-78
2022/07/08 06:31:02;;;;;;;6.10;2.00;;;21.00;99.90;;;;;;4143572;28;20673;-78
2022/07/08 06:33:06;;;;;;;5.60;1.80;;;21.00;99.90;;;;;;4148388;28;20221;-78
2022/07/08 06:35:10;;;;;;;6.47;2.03;;;21.00;99.90;;;;;;4146627;28;20226;-78
2022/07/08 06:37:13;;;;;;;4.38;1.80;;;21.00;99.90;;;;;;4139430;28;20205;-78
2022/07/08 06:39:15;;;;;;;5.07;1.83;;;21.10;99.90;;;;;;4144505;28;20216;-78
2022/07/08 06:41:17;;;;;;;6.63;2.03;;;21.00;99.90;;;;;;4143576;28;20990;-78
2022/07/08 06:43:19;;;;;;;5.57;1.73;;;21.00;99.90;;;;;;4139136;28;20209;-78
2022/07/08 06:45:22;;;;;;;4.13;1.60;;;21.10;99.90;;;;;;4148873;28;20270;-78
2022/07/08 06:47:25;;;;;;;5.18;2.33;;;21.00;99.90;;;;;;4158052;28;20232;-78
2022/07/08 06:49:28;;;;;;;4.85;1.83;;;21.00;99.90;;;;;;4152716;28;20605;-78
2022/07/08 06:51:30;;;;;;;4.95;1.80;;;21.10;99.90;;;;;;4144867;28;20221;-78
2022/07/08 06:55:49;;;;;;;5.20;2.20;;;21.10;99.90;;;;;;4146552;28;20247;-78
2022/07/08 06:57:51;;;;;;;3.97;1.80;;;21.10;99.90;;;;;;4150579;28;20209;-78
2022/07/08 06:59:54;;;;;;;6.03;2.33;;;21.10;99.90;;;;;;4154677;28;20209;-78
2022/07/08 07:01:56;;;;;;;6.40;1.83;;;21.10;99.90;;;;;;4156163;28;20275;-78
2022/07/08 07:03:59;;;;;;;4.85;1.75;;;21.00;99.90;;;;;;4146705;28;20244;-78
2022/07/08 07:06:02;;;;;;;6.18;1.98;;;21.10;99.90;;;;;;4146419;28;20213;-78
2022/07/08 07:08:05;;;;;;;5.07;2.00;;;21.10;99.90;;;;;;4142268;28;20264;-78
2022/07/08 07:10:08;;;;;;;4.95;1.88;;;21.10;99.90;;;;;;4142333;28;20222;-78
2022/07/08 07:12:10;;;;;;;4.05;1.90;;;21.10;99.90;;;;;;4143545;28;20217;-78
2022/07/08 07:14:13;;;;;;;9.43;1.98;;;21.10;99.90;;;;;;4144988;28;20252;-75
2022/07/08 07:16:15;;;;;;;13.85;2.72;;;20.90;99.90;;;;;;4146294;28;20270;-75
2022/07/08 07:18:18;;;;;;;10.60;2.50;;;20.70;99.90;;;;;;4122080;28;20218;-74
2022/07/08 07:20:20;;;;;;;7.45;2.10;;;20.60;99.90;;;;;;4139295;28;20221;-75
2022/07/08 07:22:24;;;;;;;8.18;2.10;;;20.60;99.90;;;;;;4129696;28;20218;-76
2022/07/08 07:24:27;;;;;;;6.97;2.38;;;20.50;99.90;;;;;;4126394;28;20218;-75
2022/07/08 07:26:29;;;;;;;8.85;2.17;;;20.50;99.90;;;;;;4120719;28;20360;-76
2022/07/08 07:28:31;;;;;;;6.22;1.70;;;20.40;99.90;;;;;;4129344;28;20233;-75
2022/07/08 07:30:34;;;;;;;10.02;2.30;;;20.40;99.90;;;;;;4128216;28;20268;-75
2022/07/08 07:32:36;;;;;;;14.50;3.17;;;20.40;99.90;;;;;;4131535;28;20263;-75
2022/07/08 07:34:38;;;;;;;9.70;2.20;;;20.10;99.90;;;;;;4128838;28;20213;-76
2022/07/08 07:36:40;;;;;;;10.75;2.20;;;19.80;99.90;;;;;;4130251;28;20582;-76
2022/07/08 07:38:44;;;;;;;11.57;2.65;;;19.40;99.90;;;;;;4125295;28;20206;-76
2022/07/08 07:40:46;;;;;;;10.20;2.50;;;19.10;99.90;;;;;;4134239;28;20231;-75
2022/07/08 07:42:49;;;;;;;13.93;2.60;;;19.00;99.90;;;;;;4121371;28;20243;-76
2022/07/08 07:44:51;;;;;;;12.25;2.38;;;19.10;99.90;;;;;;4126091;28;20291;-75
2022/07/08 07:46:53;;;;;;;7.80;2.63;;;19.00;99.90;;;;;;4121933;28;20236;-76
2022/07/08 07:48:55;;;;;;;10.30;2.50;;;18.90;99.90;;;;;;4127381;28;20324;-76
2022/07/08 07:50:58;;;;;;;9.82;2.25;;;18.80;99.90;;;;;;4128467;28;20213;-75
2022/07/08 07:53:00;;;;;;;13.13;2.45;;;18.90;99.90;;;;;;4127665;28;20684;-75
2022/07/08 07:55:04;;;;;;;11.90;2.58;;;18.80;99.90;;;;;;4118382;28;20226;-77
2022/07/08 07:57:06;;;;;;;13.23;2.33;;;18.70;99.90;;;;;;4121718;28;20761;-74
2022/07/08 07:59:09;;;;;;;12.80;2.45;;;18.60;99.90;;;;;;4132089;28;20534;-75
2022/07/08 08:01:11;;;;;;;8.15;2.25;;;18.70;99.90;;;;;;4125750;28;20347;-76
2022/07/08 08:03:14;;;;;;;13.65;2.67;;;18.80;99.90;;;;;;4123897;28;20296;-76
2022/07/08 08:05:16;;;;;;;12.52;2.90;;;18.80;99.90;;;;;;4122510;28;20218;-75
2022/07/08 08:07:19;;;;;;;7.82;2.05;;;18.90;99.90;;;;;;4126003;28;20214;-76
2022/07/08 08:09:21;;;;;;;8.48;1.88;;;19.00;99.90;;;;;;4127683;28;20241;-75
2022/07/08 08:11:25;;;;;;;12.05;2.00;;;18.90;99.90;;;;;;4123828;28;20217;-77
2022/07/08 08:13:27;;;;;;;9.43;2.58;;;18.90;99.90;;;;;;4126792;28;20268;-76
2022/07/08 08:15:30;;;;;;;8.10;1.63;;;18.90;99.90;;;;;;4125412;28;20270;-75
2022/07/08 08:17:36;;;;;;;9.73;2.28;;;19.10;99.90;;;;;;4133077;28;20287;-76
2022/07/08 08:19:38;;;;;;;9.88;2.45;;;19.00;99.90;;;;;;4141392;28;20265;-76
2022/07/08 08:21:41;;;;;;;12.80;2.63;;;18.90;99.90;;;;;;4133556;28;20285;-76
2022/07/08 08:23:43;;;;;;;10.13;2.50;;;18.70;99.90;;;;;;4139811;28;20259;-76
2022/07/08 08:25:45;;;;;;;9.90;2.17;;;18.60;99.90;;;;;;4139428;28;20279;-78
2022/07/08 08:27:49;;;;;;;7.15;1.90;;;18.70;99.90;;;;;;4142962;28;20216;-77
2022/07/08 08:29:51;;;;;;;8.13;2.20;;;18.80;99.90;;;;;;4141437;28;20275;-75
2022/07/08 08:31:53;;;;;;;10.32;2.40;;;19.00;99.90;;;;;;4140928;28;20217;-76
2022/07/08 08:33:56;;;;;;;12.45;2.05;;;19.20;99.90;;;;;;4140887;28;20268;-75
2022/07/08 08:35:58;;;;;;;10.80;3.08;;;19.20;99.90;;;;;;4139403;28;20221;-76
2022/07/08 08:38:00;;;;;;;7.60;2.22;;;19.00;99.90;;;;;;4140148;28;20221;-76
2022/07/08 08:40:04;;;;;;;8.25;2.28;;;19.00;99.90;;;;;;4140067;28;20213;-76
2022/07/08 08:42:07;;;;;;;12.55;2.30;;;19.10;99.90;;;;;;4146476;28;20220;-76
2022/07/08 08:44:11;;;;;;;6.57;2.30;;;19.20;99.90;;;;;;4148001;28;20224;-74
2022/07/08 08:46:15;;;;;;;8.27;2.20;;;19.30;99.90;;;;;;4148127;28;20586;-75
2022/07/08 08:48:23;;;;;;;9.85;2.15;;;19.40;99.90;;;;;;4145873;28;20233;-75
2022/07/08 08:52:48;;;;;;;8.82;2.20;;;19.60;99.90;;;;;;4139376;28;20965;-75
2022/07/08 08:54:54;;;;;;;7.90;2.30;;;19.50;99.90;;;;;;4141407;28;20225;-77
2022/07/08 08:56:57;;;;;;;9.95;2.03;;;19.50;99.90;;;;;;4139636;28;20274;-76
2022/07/08 08:59:00;;;;;;;11.13;2.60;;;19.50;99.90;;;;;;4141642;28;20315;-79
2022/07/08 09:01:04;;;;;;;9.63;2.22;;;19.60;99.90;;;;;;4136396;28;20221;-78
2022/07/08 09:03:06;;;;;;;9.82;1.80;;;19.70;99.90;;;;;;4129510;28;20224;-75
2022/07/08 09:05:09;;;;;;;11.32;2.03;;;19.90;99.90;;;;;;4138966;28;20946;-75
2022/07/08 09:07:12;;;;;;;10.45;2.13;;;19.90;99.90;;;;;;4135241;28;20264;-80
2022/07/08 09:09:14;;;;;;;9.02;1.90;;;19.90;99.90;;;;;;4135634;28;20279;-74
2022/07/08 09:11:18;;;;;;;9.93;2.58;;;19.80;99.90;;;;;;4141314;28;20274;-82
2022/07/08 09:13:23;;;;;;;7.20;2.00;;;19.80;99.90;;;;;;4138749;28;20217;-73
2022/07/08 09:15:30;;;;;;;8.77;2.55;;;19.80;99.90;;;;;;4128753;28;20217;-76
2022/07/08 09:17:44;;;;;;;8.57;2.58;;;19.70;99.90;;;;;;4126754;28;20288;-76
2022/07/08 09:19:49;;;;;;;10.65;2.53;;;19.80;99.90;;;;;;4124619;28;20280;-78
2022/07/08 09:21:53;;;;;;;6.70;2.08;;;20.00;99.90;;;;;;4126210;28;20654;-77
2022/07/08 09:23:55;;;;;;;26.92;3.20;;;20.10;99.90;;;;;;4123360;28;20330;-76
2022/07/08 09:26:00;;;;;;;11.90;2.10;;;20.20;99.90;;;;;;4116323;28;20222;-77
2022/07/08 09:28:03;;;;;;;10.43;2.42;;;20.40;99.90;;;;;;4122017;28;20221;-76
2022/07/08 09:30:07;;;;;;;12.05;2.28;;;20.40;99.90;;;;;;4116845;28;20292;-77
2022/07/08 09:32:11;;;;;;;10.32;2.28;;;20.30;99.90;;;;;;4123903;28;20299;-77
2022/07/08 09:34:16;;;;;;;10.70;2.38;;;20.20;99.90;;;;;;4122901;28;20276;-75
2022/07/08 09:36:19;;;;;;;11.85;2.30;;;20.20;99.90;;;;;;4119943;28;20639;-75
2022/07/08 09:38:22;;;;;;;12.63;2.50;;;20.00;99.90;;;;;;4119141;28;20218;-77
2022/07/08 09:40:25;;;;;;;8.75;2.40;;;20.10;99.90;;;;;;4121390;28;20214;-77
2022/07/08 09:42:28;;;;;;;9.15;2.03;;;20.20;99.90;;;;;;4121632;28;20255;-78
2022/07/08 09:44:30;;;;;;;10.90;2.40;;;20.20;99.90;;;;;;4125541;28;20230;-78
2022/07/08 09:46:37;;;;;;;6.40;2.05;;;20.40;99.90;;;;;;4123936;28;20272;-76
2022/07/08 09:48:39;;;;;;;9.88;2.40;;;20.60;99.90;;;;;;4124817;28;20238;-77
2022/07/08 09:50:44;;;;;;;10.82;2.20;;;20.70;99.90;;;;;;4121991;28;20213;-77
2022/07/08 09:52:47;;;;;;;6.68;1.98;;;20.70;99.90;;;;;;4126270;28;20273;-76
2022/07/08 09:55:01;;;;;;;6.63;1.95;;;20.60;99.90;;;;;;4126339;28;20288;-78
2022/07/08 09:57:05;;;;;;;7.35;1.98;;;20.80;99.90;;;;;;4126502;28;20637;-76
2022/07/08 09:59:07;;;;;;;8.70;2.50;;;20.90;99.90;;;;;;4129692;28;20218;-74
2022/07/08 10:01:09;;;;;;;10.55;2.05;;;21.00;99.90;;;;;;4124532;28;20222;-76
2022/07/08 10:03:12;;;;;;;10.25;2.10;;;21.00;99.90;;;;;;4122056;28;20213;-76
2022/07/08 10:05:16;;;;;;;6.88;1.95;;;20.90;99.90;;;;;;4123132;28;20261;-79
2022/07/08 10:07:20;;;;;;;7.00;1.88;;;20.90;99.90;;;;;;4130301;28;20245;-75
2022/07/08 10:09:24;;;;;;;6.25;2.08;;;20.80;99.90;;;;;;4122759;28;20292;-75
2022/07/08 10:11:26;;;;;;;5.47;2.10;;;20.80;99.90;;;;;;4123735;28;20247;-74
2022/07/08 10:13:29;;;;;;;8.70;1.92;;;20.80;99.90;;;;;;4118124;28;20221;-76
2022/07/08 10:15:33;;;;;;;9.95;1.98;;;20.90;99.90;;;;;;4128926;28;20264;-77
2022/07/08 10:17:42;;;;;;;8.20;1.77;;;21.00;99.90;;;;;;4138631;28;21052;-78
2022/07/08 10:19:48;;;;;;;8.80;2.10;;;21.20;99.90;;;;;;4140822;28;20209;-79
2022/07/08 10:21:53;;;;;;;10.75;2.78;;;21.30;99.90;;;;;;4143965;28;20267;-76
2022/07/08 10:23:57;;;;;;;12.98;3.03;;;21.10;99.90;;;;;;4140252;28;20221;-78
2022/07/08 10:26:01;;;;;;;16.98;3.05;;;21.00;99.90;;;;;;4141554;28;21051;-77
2022/07/08 10:28:10;;;;;;;14.55;3.17;;;20.90;99.90;;;;;;4144081;28;20225;-86
2022/07/08 10:30:14;;;;;;;7.68;2.05;;;20.90;99.90;;;;;;4141048;28;20233;-85
2022/07/08 10:32:24;;;;;;;7.47;2.33;;;21.00;99.90;;;;;;4141461;28;20250;-81
2022/07/08 10:34:42;;;;;;;9.65;2.75;;;21.10;99.90;;;;;;4147073;28;20271;-82
2022/07/08 10:36:49;;;;;;;8.38;2.60;;;21.30;99.90;;;;;;4147140;28;20224;-82
2022/07/08 10:38:51;;;;;;;10.60;2.63;;;21.40;99.90;;;;;;4146228;28;20225;-83
2022/07/08 10:40:56;;;;;;;4.90;1.83;;;21.60;99.90;;;;;;4146917;28;20213;-82
2022/07/08 10:43:06;;;;;;;7.13;2.15;;;21.60;99.90;;;;;;4145592;28;20267;-82
2022/07/08 10:45:16;;;;;;;7.03;2.10;;;21.70;99.90;;;;;;4146514;28;20628;-82